createdAt,value
2017-12-16T00:00:23.434Z,56.65
2017-12-16T00:00:55.067Z,56.73
2017-12-16T00:01:26.803Z,56.76
2017-12-16T00:01:58.451Z,56.74
2017-12-16T00:02:30.395Z,56.90
2017-12-16T00:03:02.070Z,56.98
2017-12-16T00:03:33.986Z,56.95
2017-12-16T00:04:05.627Z,57.16
2017-12-16T00:04:37.271Z,57.06
2017-12-16T00:05:09.146Z,57.07
2017-12-16T00:05:40.778Z,57.13
2017-12-16T00:06:12.402Z,57.59
2017-12-16T00:06:44.144Z,57.45
2017-12-16T00:07:15.795Z,57.30
2017-12-16T00:07:47.662Z,57.82
2017-12-16T00:08:19.377Z,57.44
2017-12-16T00:08:51.016Z,57.78
2017-12-16T00:09:22.657Z,57.95
2017-12-16T00:09:54.300Z,57.91
2017-12-16T00:10:25.947Z,57.98
2017-12-16T00:10:57.583Z,58.14
2017-12-16T00:11:29.227Z,58.19
2017-12-16T00:12:00.871Z,58.16
2017-12-16T00:12:32.542Z,58.01
2017-12-16T00:13:04.171Z,57.99
2017-12-16T00:13:35.803Z,57.81
2017-12-16T00:14:07.434Z,57.69
2017-12-16T00:14:39.082Z,57.67
2017-12-16T00:15:10.707Z,57.75
2017-12-16T00:15:42.417Z,57.85
2017-12-16T00:16:14.016Z,57.74
2017-12-16T00:16:45.954Z,57.83
2017-12-16T00:17:17.593Z,57.61
2017-12-16T00:17:49.267Z,57.77
2017-12-16T00:18:20.891Z,57.78
2017-12-16T00:18:52.526Z,57.70
2017-12-16T00:19:24.163Z,57.63
2017-12-16T00:19:55.803Z,57.70
2017-12-16T00:20:27.451Z,57.58
2017-12-16T00:20:59.107Z,57.75
2017-12-16T00:21:30.735Z,57.68
2017-12-16T00:22:02.402Z,57.88
2017-12-16T00:22:34.031Z,57.83
2017-12-16T00:23:05.698Z,57.96
2017-12-16T00:23:37.323Z,57.98
2017-12-16T00:24:08.949Z,58.05
2017-12-16T00:24:40.814Z,58.19
2017-12-16T00:25:12.533Z,58.02
2017-12-16T00:25:44.174Z,57.94
2017-12-16T00:26:15.813Z,57.91
2017-12-16T00:26:47.458Z,57.86
2017-12-16T00:27:19.117Z,57.74
2017-12-16T00:27:50.747Z,57.88
2017-12-16T00:28:22.578Z,57.87
2017-12-16T00:28:54.201Z,57.91
2017-12-16T00:29:26.271Z,57.98
2017-12-16T00:29:57.920Z,57.98
2017-12-16T00:30:29.590Z,58.00
2017-12-16T00:31:01.214Z,58.03
2017-12-16T00:31:33.156Z,58.03
2017-12-16T00:32:04.782Z,57.97
2017-12-16T00:32:36.439Z,57.83
2017-12-16T00:33:08.082Z,57.86
2017-12-16T00:33:39.752Z,57.71
2017-12-16T00:34:11.378Z,57.74
2017-12-16T00:34:43.234Z,57.69
2017-12-16T00:35:14.862Z,57.88
2017-12-16T00:35:46.530Z,57.86
2017-12-16T00:36:18.152Z,57.69
2017-12-16T00:36:50.074Z,57.94
2017-12-16T00:37:21.832Z,57.76
2017-12-16T00:37:53.474Z,57.86
2017-12-16T00:38:25.116Z,57.71
2017-12-16T00:38:56.774Z,57.79
2017-12-16T00:39:28.406Z,57.81
2017-12-16T00:40:00.038Z,57.89
2017-12-16T00:40:31.711Z,57.88
2017-12-16T00:41:03.339Z,57.79
2017-12-16T00:41:34.971Z,57.78
2017-12-16T00:42:06.837Z,57.86
2017-12-16T00:42:38.507Z,57.83
2017-12-16T00:43:10.137Z,57.73
2017-12-16T00:43:41.767Z,58.08
2017-12-16T00:44:13.390Z,57.78
2017-12-16T00:44:45.126Z,57.84
2017-12-16T00:45:16.764Z,57.82
2017-12-16T00:45:48.405Z,57.96
2017-12-16T00:46:20.075Z,57.95
2017-12-16T00:46:51.738Z,57.89
2017-12-16T00:47:23.367Z,57.97
2017-12-16T00:47:54.989Z,57.99
2017-12-16T00:48:26.819Z,57.99
2017-12-16T00:48:58.568Z,57.84
2017-12-16T00:49:30.206Z,58.02
2017-12-16T00:50:01.852Z,58.03
2017-12-16T00:50:33.489Z,58.07
2017-12-16T00:51:05.154Z,58.11
2017-12-16T00:51:37.084Z,58.10
2017-12-16T00:52:08.725Z,58.37
2017-12-16T00:52:40.395Z,58.27
2017-12-16T00:53:12.023Z,58.21
2017-12-16T00:53:43.854Z,58.37
2017-12-16T00:54:15.601Z,58.39
2017-12-16T00:54:47.241Z,58.41
2017-12-16T00:55:18.885Z,58.52
2017-12-16T00:55:50.524Z,58.50
2017-12-16T00:56:22.166Z,58.51
2017-12-16T00:56:53.842Z,58.47
2017-12-16T00:57:25.474Z,58.41
2017-12-16T00:57:57.105Z,58.77
2017-12-16T00:58:28.914Z,58.73
2017-12-16T00:59:00.685Z,58.72
2017-12-16T00:59:32.324Z,58.85
2017-12-16T01:00:03.968Z,58.72
2017-12-16T01:00:35.616Z,58.80
2017-12-16T01:01:07.253Z,58.89
2017-12-16T01:01:38.895Z,59.04
2017-12-16T01:02:10.558Z,58.95
2017-12-16T01:02:42.451Z,59.19
2017-12-16T01:03:14.078Z,59.13
2017-12-16T01:03:45.710Z,59.08
2017-12-16T01:04:17.343Z,58.96
2017-12-16T01:04:48.971Z,59.03
2017-12-16T01:05:20.639Z,58.85
2017-12-16T01:05:52.262Z,58.87
2017-12-16T01:06:23.891Z,58.84
2017-12-16T01:06:55.553Z,59.09
2017-12-16T01:07:27.178Z,58.93
2017-12-16T01:07:58.801Z,58.94
2017-12-16T01:08:30.547Z,58.87
2017-12-16T01:09:02.207Z,58.96
2017-12-16T01:09:34.141Z,58.94
2017-12-16T01:10:05.777Z,59.01
2017-12-16T01:10:37.419Z,58.92
2017-12-16T01:11:09.061Z,58.84
2017-12-16T01:11:40.703Z,58.93
2017-12-16T01:12:12.345Z,59.06
2017-12-16T01:12:43.986Z,59.14
2017-12-16T01:13:15.938Z,59.06
2017-12-16T01:13:47.605Z,58.86
2017-12-16T01:14:19.234Z,58.96
2017-12-16T01:14:51.068Z,58.80
2017-12-16T01:15:22.814Z,58.84
2017-12-16T01:15:54.451Z,59.11
2017-12-16T01:16:26.094Z,58.99
2017-12-16T01:16:57.770Z,58.99
2017-12-16T01:17:29.398Z,58.96
2017-12-16T01:18:01.258Z,59.03
2017-12-16T01:18:32.890Z,59.12
2017-12-16T01:19:04.517Z,59.11
2017-12-16T01:19:36.256Z,59.17
2017-12-16T01:20:07.882Z,59.28
2017-12-16T01:20:39.510Z,59.23
2017-12-16T01:21:11.134Z,59.24
2017-12-16T01:21:42.762Z,59.18
2017-12-16T01:22:14.462Z,58.99
2017-12-16T01:22:46.107Z,59.19
2017-12-16T01:23:17.746Z,59.04
2017-12-16T01:23:49.391Z,59.02
2017-12-16T01:24:21.033Z,59.09
2017-12-16T01:24:52.862Z,59.20
2017-12-16T01:25:24.486Z,59.26
2017-12-16T01:25:56.119Z,59.25
2017-12-16T01:26:27.746Z,59.06
2017-12-16T01:26:59.370Z,59.22
2017-12-16T01:27:31.191Z,59.06
2017-12-16T01:28:02.836Z,59.22
2017-12-16T01:28:34.474Z,59.37
2017-12-16T01:29:06.114Z,59.23
2017-12-16T01:29:37.795Z,59.19
2017-12-16T01:30:09.418Z,59.13
2017-12-16T01:30:41.049Z,59.24
2017-12-16T01:31:12.684Z,59.28
2017-12-16T01:31:44.325Z,59.30
2017-12-16T01:32:15.965Z,59.39
2017-12-16T01:32:47.642Z,59.22
2017-12-16T01:33:19.262Z,59.36
2017-12-16T01:33:51.135Z,59.34
2017-12-16T01:34:22.763Z,59.31
2017-12-16T01:34:54.390Z,59.36
2017-12-16T01:35:26.126Z,59.39
2017-12-16T01:35:57.765Z,59.36
2017-12-16T01:36:29.409Z,59.41
2017-12-16T01:37:01.050Z,59.29
2017-12-16T01:37:32.695Z,59.23
2017-12-16T01:38:04.363Z,59.26
2017-12-16T01:38:35.991Z,59.44
2017-12-16T01:39:07.875Z,59.36
2017-12-16T01:39:39.874Z,59.39
2017-12-16T01:40:12.104Z,59.10
2017-12-16T01:40:43.734Z,59.19
2017-12-16T01:41:15.361Z,59.16
2017-12-16T01:41:46.982Z,59.11
2017-12-16T01:42:18.610Z,59.14
2017-12-16T01:42:50.342Z,59.11
2017-12-16T01:43:21.984Z,59.13
2017-12-16T01:43:53.870Z,59.05
2017-12-16T01:44:25.490Z,59.04
2017-12-16T01:44:57.217Z,59.16
2017-12-16T01:45:28.859Z,59.06
2017-12-16T01:46:00.501Z,59.14
2017-12-16T01:46:32.139Z,59.12
2017-12-16T01:47:03.767Z,59.05
2017-12-16T01:47:35.427Z,59.00
2017-12-16T01:48:07.068Z,59.14
2017-12-16T01:48:38.710Z,59.01
2017-12-16T01:49:10.374Z,59.04
2017-12-16T01:49:42.003Z,59.16
2017-12-16T01:50:13.944Z,59.05
2017-12-16T01:50:45.584Z,58.90
2017-12-16T01:51:18.418Z,58.88
2017-12-16T01:51:50.046Z,58.94
2017-12-16T01:52:21.682Z,59.02
2017-12-16T01:52:53.302Z,58.99
2017-12-16T01:53:24.925Z,59.03
2017-12-16T01:53:56.745Z,59.14
2017-12-16T01:54:28.422Z,59.02
2017-12-16T01:55:00.052Z,58.91
2017-12-16T01:55:31.871Z,58.90
2017-12-16T01:56:03.542Z,59.03
2017-12-16T01:56:35.219Z,59.03
2017-12-16T01:57:06.846Z,58.88
2017-12-16T01:57:38.470Z,59.00
2017-12-16T01:58:10.105Z,58.93
2017-12-16T01:58:42.074Z,59.11
2017-12-16T01:59:13.719Z,59.10
2017-12-16T01:59:45.346Z,58.93
2017-12-16T02:00:17.290Z,59.03
2017-12-16T02:00:48.938Z,59.03
2017-12-16T02:01:20.603Z,58.88
2017-12-16T02:01:52.235Z,58.85
2017-12-16T02:02:24.102Z,58.88
2017-12-16T02:02:55.730Z,58.87
2017-12-16T02:03:27.354Z,58.89
2017-12-16T02:03:59.090Z,58.88
2017-12-16T02:04:30.758Z,58.89
2017-12-16T02:05:03.116Z,58.81
2017-12-16T02:05:34.740Z,58.85
2017-12-16T02:06:06.566Z,58.88
2017-12-16T02:06:38.247Z,58.78
2017-12-16T02:07:09.878Z,58.77
2017-12-16T02:07:41.737Z,58.85
2017-12-16T02:08:13.362Z,58.80
2017-12-16T02:08:45.095Z,58.75
2017-12-16T02:09:16.936Z,58.87
2017-12-16T02:09:48.687Z,58.89
2017-12-16T02:10:20.327Z,58.95
2017-12-16T02:10:51.968Z,58.98
2017-12-16T02:11:24.497Z,58.94
2017-12-16T02:11:56.323Z,58.86
2017-12-16T02:12:27.951Z,59.00
2017-12-16T02:12:59.574Z,58.94
2017-12-16T02:13:31.409Z,58.92
2017-12-16T02:14:03.243Z,58.86
2017-12-16T02:14:35.000Z,58.95
2017-12-16T02:15:06.947Z,58.85
2017-12-16T02:15:38.591Z,58.99
2017-12-16T02:16:10.233Z,58.88
2017-12-16T02:16:41.873Z,58.81
2017-12-16T02:17:13.518Z,58.92
2017-12-16T02:17:45.156Z,58.96
2017-12-16T02:18:16.817Z,58.93
2017-12-16T02:18:48.682Z,58.90
2017-12-16T02:19:20.350Z,58.96
2017-12-16T02:19:51.988Z,58.75
2017-12-16T02:20:23.623Z,58.75
2017-12-16T02:20:55.245Z,58.64
2017-12-16T02:21:26.959Z,58.83
2017-12-16T02:21:58.598Z,58.79
2017-12-16T02:22:30.240Z,58.74
2017-12-16T02:23:01.885Z,58.75
2017-12-16T02:23:33.524Z,58.72
2017-12-16T02:24:05.168Z,58.81
2017-12-16T02:24:36.808Z,58.75
2017-12-16T02:25:08.495Z,58.77
2017-12-16T02:25:40.122Z,58.86
2017-12-16T02:26:11.751Z,58.75
2017-12-16T02:26:43.685Z,58.87
2017-12-16T02:27:15.328Z,58.89
2017-12-16T02:27:46.966Z,58.82
2017-12-16T02:28:19.002Z,58.82
2017-12-16T02:28:51.562Z,58.80
2017-12-16T02:29:24.053Z,58.71
2017-12-16T02:29:56.916Z,58.66
2017-12-16T02:30:29.631Z,58.61
2017-12-16T02:31:01.258Z,58.62
2017-12-16T02:31:32.887Z,58.67
2017-12-16T02:32:04.514Z,58.60
2017-12-16T02:32:36.182Z,58.62
2017-12-16T02:33:07.811Z,58.60
2017-12-16T02:33:39.442Z,58.58
2017-12-16T02:34:12.383Z,58.62
2017-12-16T02:34:44.017Z,58.51
2017-12-16T02:35:16.070Z,58.57
2017-12-16T02:35:47.697Z,58.68
2017-12-16T02:36:19.335Z,58.82
2017-12-16T02:36:50.962Z,58.79
2017-12-16T02:37:22.599Z,58.85
2017-12-16T02:37:54.310Z,58.79
2017-12-16T02:38:26.259Z,58.87
2017-12-16T02:38:57.890Z,58.92
2017-12-16T02:39:29.979Z,58.87
2017-12-16T02:40:01.606Z,58.86
2017-12-16T02:40:34.299Z,58.92
2017-12-16T02:41:05.934Z,58.85
2017-12-16T02:41:38.075Z,59.00
2017-12-16T02:42:09.702Z,59.09
2017-12-16T02:42:41.734Z,59.01
2017-12-16T02:43:13.751Z,59.00
2017-12-16T02:43:46.668Z,58.94
2017-12-16T02:44:18.327Z,59.18
2017-12-16T02:44:50.260Z,59.26
2017-12-16T02:45:22.833Z,59.03
2017-12-16T02:45:54.502Z,58.99
2017-12-16T02:46:27.275Z,58.97
2017-12-16T02:46:59.623Z,59.11
2017-12-16T02:47:31.254Z,59.05
2017-12-16T02:48:02.891Z,59.15
2017-12-16T02:48:34.716Z,59.13
2017-12-16T02:49:06.470Z,59.15
2017-12-16T02:49:38.112Z,59.06
2017-12-16T02:50:09.801Z,59.07
2017-12-16T02:50:41.421Z,58.96
2017-12-16T02:51:13.043Z,59.11
2017-12-16T02:51:44.675Z,59.02
2017-12-16T02:52:16.319Z,59.15
2017-12-16T02:52:47.963Z,59.01
2017-12-16T02:53:19.604Z,59.04
2017-12-16T02:53:51.247Z,59.03
2017-12-16T02:54:22.885Z,58.97
2017-12-16T02:54:54.530Z,58.99
2017-12-16T02:55:26.158Z,58.91
2017-12-16T02:55:57.815Z,58.92
2017-12-16T02:56:29.643Z,58.91
2017-12-16T02:57:01.335Z,58.99
2017-12-16T02:57:32.966Z,59.04
2017-12-16T02:58:04.595Z,59.02
2017-12-16T02:58:36.331Z,58.94
2017-12-16T02:59:07.971Z,59.00
2017-12-16T02:59:39.611Z,59.12
2017-12-16T03:00:11.248Z,58.96
2017-12-16T03:00:42.898Z,59.08
2017-12-16T03:01:14.537Z,59.07
2017-12-16T03:01:46.180Z,58.98
2017-12-16T03:02:17.832Z,59.03
2017-12-16T03:02:49.774Z,59.05
2017-12-16T03:03:21.398Z,59.09
2017-12-16T03:03:53.026Z,59.11
2017-12-16T03:04:24.655Z,58.98
2017-12-16T03:04:56.286Z,59.02
2017-12-16T03:05:27.918Z,58.99
2017-12-16T03:05:59.546Z,59.02
2017-12-16T03:06:31.210Z,59.11
2017-12-16T03:07:02.834Z,58.97
2017-12-16T03:07:34.458Z,58.89
2017-12-16T03:08:06.193Z,58.97
2017-12-16T03:08:37.837Z,58.92
2017-12-16T03:09:09.473Z,58.93
2017-12-16T03:09:41.118Z,58.99
2017-12-16T03:10:12.761Z,58.98
2017-12-16T03:10:44.433Z,59.03
2017-12-16T03:11:16.096Z,58.89
2017-12-16T03:11:47.923Z,58.97
2017-12-16T03:12:19.551Z,59.02
2017-12-16T03:12:51.183Z,59.04
2017-12-16T03:13:22.923Z,59.09
2017-12-16T03:13:54.561Z,59.10
2017-12-16T03:14:26.199Z,59.07
2017-12-16T03:14:57.843Z,59.06
2017-12-16T03:15:29.486Z,59.04
2017-12-16T03:16:01.310Z,59.15
2017-12-16T03:16:33.078Z,59.01
2017-12-16T03:17:04.719Z,58.96
2017-12-16T03:17:36.361Z,59.03
2017-12-16T03:18:08.000Z,59.01
2017-12-16T03:18:39.641Z,59.02
2017-12-16T03:19:11.283Z,58.98
2017-12-16T03:19:42.928Z,59.04
2017-12-16T03:20:14.567Z,59.13
2017-12-16T03:20:46.212Z,59.04
2017-12-16T03:21:17.843Z,58.98
2017-12-16T03:21:49.514Z,59.01
2017-12-16T03:22:21.141Z,59.00
2017-12-16T03:22:53.091Z,59.09
2017-12-16T03:23:24.729Z,59.07
2017-12-16T03:23:56.399Z,59.09
2017-12-16T03:24:28.026Z,59.18
2017-12-16T03:24:59.885Z,59.08
2017-12-16T03:25:31.517Z,59.17
2017-12-16T03:26:03.245Z,59.29
2017-12-16T03:26:34.887Z,59.11
2017-12-16T03:27:06.527Z,59.28
2017-12-16T03:27:38.194Z,59.11
2017-12-16T03:28:09.818Z,59.20
2017-12-16T03:28:41.481Z,59.16
2017-12-16T03:29:13.111Z,59.29
2017-12-16T03:29:44.778Z,59.18
2017-12-16T03:30:16.407Z,59.32
2017-12-16T03:30:48.031Z,59.13
2017-12-16T03:31:19.663Z,59.12
2017-12-16T03:31:51.305Z,59.13
2017-12-16T03:32:22.945Z,59.11
2017-12-16T03:32:54.623Z,59.08
2017-12-16T03:33:26.246Z,59.25
2017-12-16T03:33:58.181Z,59.25
2017-12-16T03:34:30.130Z,59.13
2017-12-16T03:35:01.772Z,59.28
2017-12-16T03:35:33.421Z,59.06
2017-12-16T03:36:05.053Z,59.08
2017-12-16T03:36:36.698Z,59.05
2017-12-16T03:37:08.338Z,59.07
2017-12-16T03:37:39.982Z,59.32
2017-12-16T03:38:11.663Z,59.27
2017-12-16T03:38:43.291Z,59.28
2017-12-16T03:39:14.920Z,59.34
2017-12-16T03:39:46.857Z,59.35
2017-12-16T03:40:18.498Z,59.18
2017-12-16T03:40:50.138Z,59.33
2017-12-16T03:41:21.798Z,59.34
2017-12-16T03:41:53.441Z,59.45
2017-12-16T03:42:25.373Z,59.32
2017-12-16T03:42:57.012Z,59.50
2017-12-16T03:43:28.686Z,59.34
2017-12-16T03:44:00.306Z,59.37
2017-12-16T03:44:31.939Z,59.36
2017-12-16T03:45:03.582Z,59.35
2017-12-16T03:45:35.225Z,59.31
2017-12-16T03:46:06.868Z,59.44
2017-12-16T03:46:38.510Z,59.29
2017-12-16T03:47:10.134Z,59.41
2017-12-16T03:47:41.763Z,59.51
2017-12-16T03:48:13.385Z,59.62
2017-12-16T03:48:45.078Z,59.74
2017-12-16T03:49:16.718Z,59.68
2017-12-16T03:49:48.357Z,59.70
2017-12-16T03:50:23.391Z,59.60
2017-12-16T03:50:55.038Z,59.68
2017-12-16T03:51:26.856Z,59.57
2017-12-16T03:51:58.482Z,59.59
2017-12-16T03:52:30.256Z,59.63
2017-12-16T03:53:01.896Z,59.71
2017-12-16T03:53:33.569Z,59.68
2017-12-16T03:54:05.195Z,59.67
2017-12-16T03:54:36.832Z,59.47
2017-12-16T03:55:08.696Z,59.55
2017-12-16T03:55:40.334Z,59.57
2017-12-16T03:56:11.958Z,59.47
2017-12-16T03:56:43.698Z,59.49
2017-12-16T03:57:15.338Z,59.53
2017-12-16T03:57:46.979Z,59.54
2017-12-16T03:58:18.621Z,59.50
2017-12-16T03:58:50.277Z,59.54
2017-12-16T03:59:21.946Z,59.68
2017-12-16T03:59:53.589Z,59.53
2017-12-16T04:00:25.217Z,59.56
2017-12-16T04:00:56.838Z,59.51
2017-12-16T04:01:28.467Z,59.77
2017-12-16T04:02:00.116Z,59.71
2017-12-16T04:02:31.756Z,59.60
2017-12-16T04:03:03.401Z,59.63
2017-12-16T04:03:35.350Z,59.58
2017-12-16T04:04:06.992Z,59.49
2017-12-16T04:04:38.654Z,59.44
2017-12-16T04:05:10.282Z,59.43
2017-12-16T04:05:41.915Z,59.51
2017-12-16T04:06:13.587Z,59.51
2017-12-16T04:06:45.219Z,59.39
2017-12-16T04:07:16.845Z,59.43
2017-12-16T04:07:48.483Z,59.44
2017-12-16T04:08:20.124Z,59.46
2017-12-16T04:08:51.766Z,59.50
2017-12-16T04:09:23.408Z,59.48
2017-12-16T04:09:55.052Z,59.50
2017-12-16T04:10:26.695Z,59.43
2017-12-16T04:10:58.336Z,59.44
2017-12-16T04:11:30.006Z,59.52
2017-12-16T04:12:01.631Z,59.48
2017-12-16T04:12:33.570Z,59.55
2017-12-16T04:13:05.211Z,59.60
2017-12-16T04:13:36.854Z,59.56
2017-12-16T04:14:08.492Z,59.40
2017-12-16T04:14:40.136Z,59.51
2017-12-16T04:15:11.776Z,59.50
2017-12-16T04:15:43.426Z,59.53
2017-12-16T04:16:15.094Z,59.45
2017-12-16T04:16:46.722Z,59.52
2017-12-16T04:17:18.349Z,59.56
2017-12-16T04:17:49.988Z,59.48
2017-12-16T04:18:21.628Z,59.56
2017-12-16T04:18:53.270Z,59.50
2017-12-16T04:19:24.899Z,59.47
2017-12-16T04:19:56.553Z,59.48
2017-12-16T04:20:28.197Z,59.48
2017-12-16T04:20:59.840Z,59.56
2017-12-16T04:21:31.521Z,59.57
2017-12-16T04:22:03.142Z,59.48
2017-12-16T04:22:35.015Z,59.56
2017-12-16T04:23:06.645Z,59.51
2017-12-16T04:23:38.275Z,59.60
2017-12-16T04:24:09.910Z,59.53
2017-12-16T04:24:41.646Z,59.48
2017-12-16T04:25:13.508Z,59.50
2017-12-16T04:25:45.135Z,59.47
2017-12-16T04:26:16.874Z,59.41
2017-12-16T04:26:48.541Z,59.46
2017-12-16T04:27:20.171Z,59.40
2017-12-16T04:27:52.001Z,59.49
2017-12-16T04:28:23.748Z,59.57
2017-12-16T04:28:55.387Z,59.53
2017-12-16T04:29:27.032Z,59.51
2017-12-16T04:29:58.662Z,59.61
2017-12-16T04:30:30.326Z,59.47
2017-12-16T04:31:02.266Z,59.62
2017-12-16T04:31:33.904Z,59.61
2017-12-16T04:32:05.546Z,59.68
2017-12-16T04:32:37.187Z,59.71
2017-12-16T04:33:08.830Z,59.67
2017-12-16T04:33:40.471Z,59.68
2017-12-16T04:34:12.143Z,59.66
2017-12-16T04:34:43.774Z,59.60
2017-12-16T04:35:15.605Z,59.71
2017-12-16T04:35:47.351Z,59.67
2017-12-16T04:36:18.989Z,59.70
2017-12-16T04:36:50.631Z,59.76
2017-12-16T04:37:22.272Z,59.88
2017-12-16T04:37:53.930Z,59.72
2017-12-16T04:38:25.606Z,59.79
2017-12-16T04:38:57.234Z,59.69
2017-12-16T04:39:28.854Z,59.85
2017-12-16T04:40:00.715Z,59.81
2017-12-16T04:40:32.337Z,59.85
2017-12-16T04:41:04.075Z,59.85
2017-12-16T04:41:35.714Z,59.77
2017-12-16T04:42:07.359Z,59.79
2017-12-16T04:42:39.001Z,59.79
2017-12-16T04:43:10.644Z,59.65
2017-12-16T04:43:42.335Z,59.71
2017-12-16T04:44:13.962Z,59.62
2017-12-16T04:44:45.587Z,59.65
2017-12-16T04:45:17.214Z,59.66
2017-12-16T04:45:48.849Z,59.65
2017-12-16T04:46:20.496Z,59.63
2017-12-16T04:46:52.133Z,59.77
2017-12-16T04:47:23.776Z,59.83
2017-12-16T04:47:55.417Z,59.91
2017-12-16T04:48:27.062Z,59.82
2017-12-16T04:48:58.730Z,59.79
2017-12-16T04:49:30.354Z,59.87
2017-12-16T04:50:01.988Z,59.71
2017-12-16T04:50:33.627Z,59.85
2017-12-16T04:51:05.269Z,59.87
2017-12-16T04:51:36.902Z,59.91
2017-12-16T04:52:08.555Z,59.84
2017-12-16T04:52:40.235Z,59.76
2017-12-16T04:53:11.858Z,59.79
2017-12-16T04:53:43.487Z,59.73
2017-12-16T04:54:15.430Z,59.68
2017-12-16T04:54:47.070Z,59.76
2017-12-16T04:55:18.715Z,59.93
2017-12-16T04:55:50.353Z,59.79
2017-12-16T04:56:21.995Z,59.69
2017-12-16T04:56:53.636Z,59.69
2017-12-16T04:57:25.282Z,59.72
2017-12-16T04:57:56.939Z,59.76
2017-12-16T04:58:28.571Z,59.96
2017-12-16T04:59:00.204Z,59.83
2017-12-16T04:59:31.848Z,59.83
2017-12-16T05:00:03.494Z,59.86
2017-12-16T05:00:35.132Z,59.89
2017-12-16T05:01:06.773Z,59.91
2017-12-16T05:01:38.443Z,59.68
2017-12-16T05:02:10.071Z,59.71
2017-12-16T05:02:41.972Z,59.69
2017-12-16T05:03:13.607Z,59.73
2017-12-16T05:03:45.230Z,59.75
2017-12-16T05:04:16.854Z,59.76
2017-12-16T05:04:48.538Z,59.78
2017-12-16T05:05:20.175Z,59.87
2017-12-16T05:05:51.802Z,59.75
2017-12-16T05:06:23.426Z,59.74
2017-12-16T05:06:55.058Z,59.72
2017-12-16T05:07:26.785Z,59.65
2017-12-16T05:07:58.425Z,59.67
2017-12-16T05:08:30.068Z,59.63
2017-12-16T05:09:01.710Z,59.72
2017-12-16T05:09:33.350Z,59.71
2017-12-16T05:10:05.023Z,59.70
2017-12-16T05:10:36.650Z,59.73
2017-12-16T05:11:08.523Z,59.66
2017-12-16T05:11:40.154Z,59.67
2017-12-16T05:12:11.784Z,59.57
2017-12-16T05:12:43.451Z,59.61
2017-12-16T05:13:15.074Z,59.58
2017-12-16T05:13:46.705Z,59.63
2017-12-16T05:14:18.342Z,59.55
2017-12-16T05:14:50.079Z,59.67
2017-12-16T05:15:21.720Z,59.63
2017-12-16T05:15:53.359Z,59.60
2017-12-16T05:16:25.039Z,59.69
2017-12-16T05:16:56.662Z,59.63
2017-12-16T05:17:28.595Z,59.63
2017-12-16T05:18:00.237Z,59.59
2017-12-16T05:18:32.187Z,59.59
2017-12-16T05:19:03.825Z,59.56
2017-12-16T05:19:35.470Z,59.49
2017-12-16T05:20:07.419Z,59.59
2017-12-16T05:20:39.058Z,59.54
2017-12-16T05:21:10.703Z,59.69
2017-12-16T05:21:42.373Z,59.68
2017-12-16T05:22:13.995Z,59.71
2017-12-16T05:22:45.936Z,59.68
2017-12-16T05:23:17.579Z,59.73
2017-12-16T05:23:49.217Z,59.79
2017-12-16T05:24:20.861Z,59.82
2017-12-16T05:24:52.501Z,59.81
2017-12-16T05:25:24.142Z,59.99
2017-12-16T05:25:55.784Z,59.98
2017-12-16T05:26:27.427Z,60.00
2017-12-16T05:26:59.130Z,59.86
2017-12-16T05:27:30.799Z,59.86
2017-12-16T05:28:02.662Z,59.91
2017-12-16T05:28:34.301Z,59.93
2017-12-16T05:29:05.942Z,59.99
2017-12-16T05:29:37.585Z,59.98
2017-12-16T05:30:09.229Z,59.99
2017-12-16T05:30:40.871Z,59.97
2017-12-16T05:31:12.550Z,59.95
2017-12-16T05:31:44.178Z,59.98
2017-12-16T05:32:15.802Z,59.91
2017-12-16T05:32:47.610Z,60.10
2017-12-16T05:33:19.234Z,59.95
2017-12-16T05:33:50.866Z,60.00
2017-12-16T05:34:22.494Z,60.17
2017-12-16T05:34:54.126Z,60.22
2017-12-16T05:35:25.759Z,60.11
2017-12-16T05:35:57.597Z,60.30
2017-12-16T05:36:29.282Z,60.25
2017-12-16T05:37:00.906Z,60.26
2017-12-16T05:37:32.541Z,60.19
2017-12-16T05:38:04.472Z,60.19
2017-12-16T05:38:36.116Z,60.17
2017-12-16T05:39:07.755Z,60.15
2017-12-16T05:39:39.396Z,60.08
2017-12-16T05:40:11.037Z,59.99
2017-12-16T05:40:42.679Z,60.10
2017-12-16T05:41:14.325Z,60.04
2017-12-16T05:41:46.005Z,60.05
2017-12-16T05:42:17.630Z,60.09
2017-12-16T05:42:49.266Z,60.16
2017-12-16T05:43:20.903Z,60.07
2017-12-16T05:43:52.776Z,60.23
2017-12-16T05:44:24.407Z,60.10
2017-12-16T05:44:56.029Z,60.11
2017-12-16T05:45:27.766Z,60.18
2017-12-16T05:45:59.411Z,60.20
2017-12-16T05:46:31.047Z,60.18
2017-12-16T05:47:02.719Z,60.18
2017-12-16T05:47:34.350Z,60.17
2017-12-16T05:48:06.283Z,60.20
2017-12-16T05:48:37.986Z,60.18
2017-12-16T05:49:09.587Z,60.13
2017-12-16T05:49:41.254Z,60.11
2017-12-16T05:50:12.886Z,60.15
2017-12-16T05:50:44.510Z,60.03
2017-12-16T05:51:16.142Z,60.08
2017-12-16T05:51:48.003Z,60.04
2017-12-16T05:52:19.630Z,60.21
2017-12-16T05:52:51.368Z,60.30
2017-12-16T05:53:23.030Z,60.21
2017-12-16T05:53:54.659Z,60.24
2017-12-16T05:54:26.600Z,60.32
2017-12-16T05:54:58.242Z,60.26
2017-12-16T05:55:29.880Z,60.25
2017-12-16T05:56:01.523Z,60.30
2017-12-16T05:56:33.167Z,60.26
2017-12-16T05:57:04.814Z,60.41
2017-12-16T05:57:36.442Z,60.41
2017-12-16T05:58:08.090Z,60.37
2017-12-16T05:58:39.754Z,60.46
2017-12-16T05:59:11.382Z,60.49
2017-12-16T05:59:43.019Z,60.43
2017-12-16T06:00:14.667Z,60.30
2017-12-16T06:00:46.527Z,60.29
2017-12-16T06:01:18.160Z,60.33
2017-12-16T06:01:49.822Z,60.38
2017-12-16T06:02:21.450Z,60.31
2017-12-16T06:02:53.204Z,60.29
2017-12-16T06:03:24.829Z,60.31
2017-12-16T06:03:56.771Z,60.35
2017-12-16T06:04:28.598Z,60.36
2017-12-16T06:05:00.226Z,60.31
2017-12-16T06:05:31.850Z,60.34
2017-12-16T06:06:03.474Z,60.28
2017-12-16T06:06:35.098Z,60.38
2017-12-16T06:07:06.871Z,60.30
2017-12-16T06:07:38.498Z,60.32
2017-12-16T06:08:10.122Z,60.32
2017-12-16T06:08:41.763Z,60.28
2017-12-16T06:09:13.494Z,60.28
2017-12-16T06:09:45.137Z,60.45
2017-12-16T06:10:16.775Z,60.31
2017-12-16T06:10:48.419Z,60.38
2017-12-16T06:11:20.063Z,60.32
2017-12-16T06:11:51.702Z,60.42
2017-12-16T06:12:23.590Z,60.41
2017-12-16T06:12:55.214Z,60.36
2017-12-16T06:13:26.939Z,60.37
2017-12-16T06:13:58.580Z,60.35
2017-12-16T06:14:30.437Z,60.32
2017-12-16T06:15:02.171Z,60.36
2017-12-16T06:15:33.816Z,60.38
2017-12-16T06:16:05.462Z,60.32
2017-12-16T06:16:37.097Z,60.31
2017-12-16T06:17:08.737Z,60.31
2017-12-16T06:17:40.406Z,60.26
2017-12-16T06:18:12.034Z,60.55
2017-12-16T06:18:43.971Z,60.25
2017-12-16T06:19:15.611Z,60.32
2017-12-16T06:19:47.252Z,60.28
2017-12-16T06:20:18.896Z,60.28
2017-12-16T06:20:50.849Z,60.20
2017-12-16T06:21:22.488Z,60.21
2017-12-16T06:21:54.130Z,60.24
2017-12-16T06:22:26.013Z,60.27
2017-12-16T06:22:57.639Z,60.22
2017-12-16T06:23:29.266Z,60.25
2017-12-16T06:24:01.007Z,60.20
2017-12-16T06:24:32.630Z,60.12
2017-12-16T06:25:04.285Z,60.10
2017-12-16T06:25:35.927Z,60.10
2017-12-16T06:26:07.569Z,60.12
2017-12-16T06:26:39.522Z,60.19
2017-12-16T06:27:11.159Z,60.24
2017-12-16T06:27:42.830Z,60.19
2017-12-16T06:28:14.462Z,60.13
2017-12-16T06:28:46.320Z,60.24
2017-12-16T06:29:17.943Z,60.24
2017-12-16T06:29:49.680Z,60.09
2017-12-16T06:30:21.351Z,60.15
2017-12-16T06:30:52.974Z,60.09
2017-12-16T06:31:24.631Z,59.98
2017-12-16T06:31:56.317Z,60.04
2017-12-16T06:32:27.911Z,60.11
2017-12-16T06:32:59.838Z,59.99
2017-12-16T06:33:31.477Z,60.07
2017-12-16T06:34:03.120Z,60.00
2017-12-16T06:34:34.763Z,59.97
2017-12-16T06:35:06.407Z,60.13
2017-12-16T06:35:38.051Z,60.15
2017-12-16T06:36:09.687Z,60.22
2017-12-16T06:36:41.327Z,60.15
2017-12-16T06:37:12.971Z,60.12
2017-12-16T06:37:44.615Z,60.01
2017-12-16T06:38:16.282Z,60.01
2017-12-16T06:38:47.910Z,59.96
2017-12-16T06:39:19.850Z,60.06
2017-12-16T06:39:51.487Z,60.04
2017-12-16T06:40:23.150Z,60.02
2017-12-16T06:40:54.781Z,60.11
2017-12-16T06:41:26.722Z,60.06
2017-12-16T06:41:58.362Z,60.09
2017-12-16T06:42:30.004Z,60.06
2017-12-16T06:43:01.648Z,60.02
2017-12-16T06:43:33.288Z,60.08
2017-12-16T06:44:04.929Z,60.12
2017-12-16T06:44:36.572Z,60.05
2017-12-16T06:45:08.218Z,60.11
2017-12-16T06:45:39.882Z,59.98
2017-12-16T06:46:11.514Z,60.21
2017-12-16T06:46:43.150Z,60.10
2017-12-16T06:47:14.837Z,60.19
2017-12-16T06:47:46.494Z,60.09
2017-12-16T06:48:18.128Z,60.05